sensor_id;sensor_type;location;lat;lon;timestamp;temperature;humidity
18733;DHT22;9495;51.210;2.934;2023-06-05T00:01:19;15.60;99.90
18733;DHT22;9495;51.210;2.934;2023-06-05T00:03:47;15.50;99.90
18733;DHT22;9495;51.210;2.934;2023-06-05T00:06:16;15.70;99.90
18733;DHT22;9495;51.210;2.934;2023-06-05T00:08:45;15.50;99.90
18733;DHT22;9495;51.210;2.934;2023-06-05T00:11:13;15.50;99.90
18733;DHT22;9495;51.210;2.934;2023-06-05T00:13:43;15.50;99.90
18733;DHT22;9495;51.210;2.934;2023-06-05T00:16:13;15.60;99.90
18733;DHT22;9495;51.210;2.934;2023-06-05T00:18:41;15.40;99.90
18733;DHT22;9495;51.210;2.934;2023-06-05T00:21:12;15.40;99.90
18733;DHT22;9495;51.210;2.934;2023-06-05T00:23:42;15.60;99.90
18733;DHT22;9495;51.210;2.934;2023-06-05T00:26:11;15.60;99.90
18733;DHT22;9495;51.210;2.934;2023-06-05T00:28:40;15.40;99.90
18733;DHT22;9495;51.210;2.934;2023-06-05T00:31:10;15.40;99.90
18733;DHT22;9495;51.210;2.934;2023-06-05T00:33:40;15.60;99.90
18733;DHT22;9495;51.210;2.934;2023-06-05T00:36:09;15.40;99.90
18733;DHT22;9495;51.210;2.934;2023-06-05T00:38:38;15.50;99.90
18733;DHT22;9495;51.210;2.934;2023-06-05T00:41:07;15.70;99.90
18733;DHT22;9495;51.210;2.934;2023-06-05T00:43:36;15.80;99.90
18733;DHT22;9495;51.210;2.934;2023-06-05T00:46:05;15.80;99.90
18733;DHT22;9495;51.210;2.934;2023-06-05T00:48:36;15.50;99.90
18733;DHT22;9495;51.210;2.934;2023-06-05T00:51:05;15.50;99.90
18733;DHT22;9495;51.210;2.934;2023-06-05T00:53:35;15.60;99.90
18733;DHT22;9495;51.210;2.934;2023-06-05T00:56:05;15.50;99.90
18733;DHT22;9495;51.210;2.934;2023-06-05T00:58:33;15.70;99.90
18733;DHT22;9495;51.210;2.934;2023-06-05T01:01:02;15.60;99.90
18733;DHT22;9495;51.210;2.934;2023-06-05T01:03:32;15.40;99.90
18733;DHT22;9495;51.210;2.934;2023-06-05T01:06:03;15.50;99.90
18733;DHT22;9495;51.210;2.934;2023-06-05T01:08:33;15.40;99.90
18733;DHT22;9495;51.210;2.934;2023-06-05T01:11:15;15.40;99.90
18733;DHT22;9495;51.210;2.934;2023-06-05T01:13:53;15.60;99.90
18733;DHT22;9495;51.210;2.934;2023-06-05T01:16:22;15.40;99.90
18733;DHT22;9495;51.210;2.934;2023-06-05T01:18:59;15.60;99.90
18733;DHT22;9495;51.210;2.934;2023-06-05T01:21:31;15.20;99.90
18733;DHT22;9495;51.210;2.934;2023-06-05T01:24:01;15.30;99.90
18733;DHT22;9495;51.210;2.934;2023-06-05T01:26:38;15.40;99.90
18733;DHT22;9495;51.210;2.934;2023-06-05T01:29:11;15.20;99.90
18733;DHT22;9495;51.210;2.934;2023-06-05T01:31:45;15.00;99.90
18733;DHT22;9495;51.210;2.934;2023-06-05T01:34:15;15.00;99.90
18733;DHT22;9495;51.210;2.934;2023-06-05T01:36:47;15.00;99.90
18733;DHT22;9495;51.210;2.934;2023-06-05T01:39:17;15.00;99.90
18733;DHT22;9495;51.210;2.934;2023-06-05T01:41:47;15.20;99.90
18733;DHT22;9495;51.210;2.934;2023-06-05T01:44:16;15.30;99.90
18733;DHT22;9495;51.210;2.934;2023-06-05T01:46:45;15.20;99.90
18733;DHT22;9495;51.210;2.934;2023-06-05T01:49:14;15.20;99.90
18733;DHT22;9495;51.210;2.934;2023-06-05T01:51:43;15.10;99.90
18733;DHT22;9495;51.210;2.934;2023-06-05T01:54:12;15.00;99.90
18733;DHT22;9495;51.210;2.934;2023-06-05T01:56:44;15.10;99.90
18733;DHT22;9495;51.210;2.934;2023-06-05T01:59:15;15.40;99.90
18733;DHT22;9495;51.210;2.934;2023-06-05T02:01:43;15.10;99.90
18733;DHT22;9495;51.210;2.934;2023-06-05T02:04:13;15.20;99.90
18733;DHT22;9495;51.210;2.934;2023-06-05T02:06:46;15.20;99.90
18733;DHT22;9495;51.210;2.934;2023-06-05T02:09:16;15.20;99.90
18733;DHT22;9495;51.210;2.934;2023-06-05T02:11:46;15.40;99.90
18733;DHT22;9495;51.210;2.934;2023-06-05T02:14:14;15.00;99.90
18733;DHT22;9495;51.210;2.934;2023-06-05T02:16:43;14.90;99.90
18733;DHT22;9495;51.210;2.934;2023-06-05T02:19:15;14.90;99.90
18733;DHT22;9495;51.210;2.934;2023-06-05T02:21:46;15.00;99.90
18733;DHT22;9495;51.210;2.934;2023-06-05T02:24:14;15.30;99.90
18733;DHT22;9495;51.210;2.934;2023-06-05T02:26:43;15.20;99.90
18733;DHT22;9495;51.210;2.934;2023-06-05T02:29:13;15.30;99.90
18733;DHT22;9495;51.210;2.934;2023-06-05T02:31:41;15.30;99.90
18733;DHT22;9495;51.210;2.934;2023-06-05T02:34:10;15.10;99.90
18733;DHT22;9495;51.210;2.934;2023-06-05T02:36:38;15.40;99.90
18733;DHT22;9495;51.210;2.934;2023-06-05T02:39:09;15.10;99.90
18733;DHT22;9495;51.210;2.934;2023-06-05T02:41:38;15.40;99.90
18733;DHT22;9495;51.210;2.934;2023-06-05T02:44:06;15.20;99.90
18733;DHT22;9495;51.210;2.934;2023-06-05T02:46:36;15.00;99.90
18733;DHT22;9495;51.210;2.934;2023-06-05T02:49:05;15.10;99.90
18733;DHT22;9495;51.210;2.934;2023-06-05T02:51:33;15.00;99.90
18733;DHT22;9495;51.210;2.934;2023-06-05T02:54:02;14.90;99.90
18733;DHT22;9495;51.210;2.934;2023-06-05T02:56:31;15.00;99.90
18733;DHT22;9495;51.210;2.934;2023-06-05T02:58:59;15.00;99.90
18733;DHT22;9495;51.210;2.934;2023-06-05T03:01:29;14.90;99.90
18733;DHT22;9495;51.210;2.934;2023-06-05T03:04:03;14.90;99.90
18733;DHT22;9495;51.210;2.934;2023-06-05T03:06:31;15.00;99.90
18733;DHT22;9495;51.210;2.934;2023-06-05T03:09:00;15.00;99.90
18733;DHT22;9495;51.210;2.934;2023-06-05T03:11:30;15.20;99.90
18733;DHT22;9495;51.210;2.934;2023-06-05T03:13:58;15.00;99.90
18733;DHT22;9495;51.210;2.934;2023-06-05T03:16:27;15.30;99.90
18733;DHT22;9495;51.210;2.934;2023-06-05T03:19:00;15.10;99.90
18733;DHT22;9495;51.210;2.934;2023-06-05T03:21:30;15.10;99.90
18733;DHT22;9495;51.210;2.934;2023-06-05T03:23:59;15.20;99.90
18733;DHT22;9495;51.210;2.934;2023-06-05T03:26:28;15.10;99.90
18733;DHT22;9495;51.210;2.934;2023-06-05T03:28:57;15.00;99.90
18733;DHT22;9495;51.210;2.934;2023-06-05T03:31:26;14.70;99.90
18733;DHT22;9495;51.210;2.934;2023-06-05T03:33:55;14.80;99.90
18733;DHT22;9495;51.210;2.934;2023-06-05T03:36:25;14.70;99.90
18733;DHT22;9495;51.210;2.934;2023-06-05T03:38:56;14.70;99.90
18733;DHT22;9495;51.210;2.934;2023-06-05T03:41:25;14.70;99.90
18733;DHT22;9495;51.210;2.934;2023-06-05T03:43:54;14.90;99.90
18733;DHT22;9495;51.210;2.934;2023-06-05T03:46:24;15.10;99.90
18733;DHT22;9495;51.210;2.934;2023-06-05T03:48:52;15.00;99.90
18733;DHT22;9495;51.210;2.934;2023-06-05T03:51:25;14.90;99.90
18733;DHT22;9495;51.210;2.934;2023-06-05T03:53:58;15.00;99.90
18733;DHT22;9495;51.210;2.934;2023-06-05T03:56:28;15.00;99.90
18733;DHT22;9495;51.210;2.934;2023-06-05T03:59:00;14.90;99.90
18733;DHT22;9495;51.210;2.934;2023-06-05T04:01:36;15.10;99.90
18733;DHT22;9495;51.210;2.934;2023-06-05T04:04:04;14.90;99.90
18733;DHT22;9495;51.210;2.934;2023-06-05T04:06:35;15.00;99.90
18733;DHT22;9495;51.210;2.934;2023-06-05T04:09:05;15.30;99.90
18733;DHT22;9495;51.210;2.934;2023-06-05T04:11:39;15.10;99.90
18733;DHT22;9495;51.210;2.934;2023-06-05T04:14:08;15.40;99.90
18733;DHT22;9495;51.210;2.934;2023-06-05T04:16:37;15.20;99.90
18733;DHT22;9495;51.210;2.934;2023-06-05T04:19:06;15.20;99.90
18733;DHT22;9495;51.210;2.934;2023-06-05T04:21:37;15.00;99.90
18733;DHT22;9495;51.210;2.934;2023-06-05T04:24:07;14.90;99.90
18733;DHT22;9495;51.210;2.934;2023-06-05T04:26:39;14.90;99.90
18733;DHT22;9495;51.210;2.934;2023-06-05T04:29:08;14.80;99.90
18733;DHT22;9495;51.210;2.934;2023-06-05T04:31:41;14.80;99.90
18733;DHT22;9495;51.210;2.934;2023-06-05T04:34:09;15.10;99.90
18733;DHT22;9495;51.210;2.934;2023-06-05T04:36:39;15.10;99.90
18733;DHT22;9495;51.210;2.934;2023-06-05T04:39:09;15.00;99.90
18733;DHT22;9495;51.210;2.934;2023-06-05T04:41:42;15.10;99.90
18733;DHT22;9495;51.210;2.934;2023-06-05T04:44:12;15.10;99.90
18733;DHT22;9495;51.210;2.934;2023-06-05T04:46:43;15.20;99.90
18733;DHT22;9495;51.210;2.934;2023-06-05T04:49:13;15.30;99.90
18733;DHT22;9495;51.210;2.934;2023-06-05T04:51:41;15.20;99.90
18733;DHT22;9495;51.210;2.934;2023-06-05T04:54:12;14.90;99.90
18733;DHT22;9495;51.210;2.934;2023-06-05T04:56:42;14.90;99.90
18733;DHT22;9495;51.210;2.934;2023-06-05T04:59:12;15.00;99.90
18733;DHT22;9495;51.210;2.934;2023-06-05T05:01:42;14.90;99.90
18733;DHT22;9495;51.210;2.934;2023-06-05T05:04:11;14.90;99.90
18733;DHT22;9495;51.210;2.934;2023-06-05T05:06:40;15.00;99.90
18733;DHT22;9495;51.210;2.934;2023-06-05T05:09:15;14.80;99.90
18733;DHT22;9495;51.210;2.934;2023-06-05T05:11:44;14.90;99.90
18733;DHT22;9495;51.210;2.934;2023-06-05T05:14:13;14.80;99.90
18733;DHT22;9495;51.210;2.934;2023-06-05T05:16:41;14.90;99.90
18733;DHT22;9495;51.210;2.934;2023-06-05T05:19:10;14.90;99.90
18733;DHT22;9495;51.210;2.934;2023-06-05T05:21:39;15.00;99.90
18733;DHT22;9495;51.210;2.934;2023-06-05T05:24:07;15.00;99.90
18733;DHT22;9495;51.210;2.934;2023-06-05T05:26:38;14.90;99.90
18733;DHT22;9495;51.210;2.934;2023-06-05T05:29:07;15.50;99.90
18733;DHT22;9495;51.210;2.934;2023-06-05T05:31:35;15.20;99.90
18733;DHT22;9495;51.210;2.934;2023-06-05T05:34:04;15.10;99.90
18733;DHT22;9495;51.210;2.934;2023-06-05T05:36:33;15.10;99.90
18733;DHT22;9495;51.210;2.934;2023-06-05T05:39:01;15.30;99.90
18733;DHT22;9495;51.210;2.934;2023-06-05T05:41:31;15.60;99.90
18733;DHT22;9495;51.210;2.934;2023-06-05T05:44:01;15.60;99.90
18733;DHT22;9495;51.210;2.934;2023-06-05T05:46:30;15.40;99.90
18733;DHT22;9495;51.210;2.934;2023-06-05T05:48:59;15.40;99.90
18733;DHT22;9495;51.210;2.934;2023-06-05T05:51:27;15.80;99.90
18733;DHT22;9495;51.210;2.934;2023-06-05T05:53:56;15.60;99.90
18733;DHT22;9495;51.210;2.934;2023-06-05T05:56:24;15.60;99.90
18733;DHT22;9495;51.210;2.934;2023-06-05T05:58:53;15.70;99.90
18733;DHT22;9495;51.210;2.934;2023-06-05T06:01:23;15.60;99.90
18733;DHT22;9495;51.210;2.934;2023-06-05T06:03:53;15.70;99.90
18733;DHT22;9495;51.210;2.934;2023-06-05T06:06:21;15.70;99.90
18733;DHT22;9495;51.210;2.934;2023-06-05T06:08:50;15.80;99.90
18733;DHT22;9495;51.210;2.934;2023-06-05T06:11:19;15.80;99.90
18733;DHT22;9495;51.210;2.934;2023-06-05T06:13:47;15.80;99.90
18733;DHT22;9495;51.210;2.934;2023-06-05T06:16:16;15.80;99.90
18733;DHT22;9495;51.210;2.934;2023-06-05T06:18:46;16.00;99.90
18733;DHT22;9495;51.210;2.934;2023-06-05T06:21:15;15.70;99.90
18733;DHT22;9495;51.210;2.934;2023-06-05T06:23:44;15.70;99.90
18733;DHT22;9495;51.210;2.934;2023-06-05T06:26:13;15.90;99.90
18733;DHT22;9495;51.210;2.934;2023-06-05T06:28:42;15.80;99.90
18733;DHT22;9495;51.210;2.934;2023-06-05T06:31:11;15.60;99.90
18733;DHT22;9495;51.210;2.934;2023-06-05T06:33:40;15.70;99.90
18733;DHT22;9495;51.210;2.934;2023-06-05T06:36:12;17.00;99.90
18733;DHT22;9495;51.210;2.934;2023-06-05T06:38:41;16.40;99.90
18733;DHT22;9495;51.210;2.934;2023-06-05T06:41:09;16.60;99.90
18733;DHT22;9495;51.210;2.934;2023-06-05T06:43:38;16.20;99.90
18733;DHT22;9495;51.210;2.934;2023-06-05T06:46:06;16.00;99.90
18733;DHT22;9495;51.210;2.934;2023-06-05T06:48:35;16.40;99.90
18733;DHT22;9495;51.210;2.934;2023-06-05T06:51:04;16.30;99.90
18733;DHT22;9495;51.210;2.934;2023-06-05T06:53:34;16.20;99.90
18733;DHT22;9495;51.210;2.934;2023-06-05T06:56:02;16.20;99.90
18733;DHT22;9495;51.210;2.934;2023-06-05T06:58:32;16.20;99.90
18733;DHT22;9495;51.210;2.934;2023-06-05T07:01:00;16.00;99.90
18733;DHT22;9495;51.210;2.934;2023-06-05T07:03:30;16.40;99.90
18733;DHT22;9495;51.210;2.934;2023-06-05T07:05:59;16.50;99.90
18733;DHT22;9495;51.210;2.934;2023-06-05T07:08:27;16.30;99.90
18733;DHT22;9495;51.210;2.934;2023-06-05T07:10:57;16.50;99.90
18733;DHT22;9495;51.210;2.934;2023-06-05T07:13:26;16.80;99.90
18733;DHT22;9495;51.210;2.934;2023-06-05T07:15:54;16.50;99.90
18733;DHT22;9495;51.210;2.934;2023-06-05T07:18:23;16.20;99.90
18733;DHT22;9495;51.210;2.934;2023-06-05T07:20:52;16.10;99.90
18733;DHT22;9495;51.210;2.934;2023-06-05T07:23:20;16.40;99.90
18733;DHT22;9495;51.210;2.934;2023-06-05T07:25:49;16.40;99.90
18733;DHT22;9495;51.210;2.934;2023-06-05T07:28:19;16.50;99.90
18733;DHT22;9495;51.210;2.934;2023-06-05T07:30:49;16.60;99.90
18733;DHT22;9495;51.210;2.934;2023-06-05T07:33:17;16.40;99.90
18733;DHT22;9495;51.210;2.934;2023-06-05T07:35:58;16.50;99.90
18733;DHT22;9495;51.210;2.934;2023-06-05T07:38:26;16.60;99.90
18733;DHT22;9495;51.210;2.934;2023-06-05T07:40:56;16.60;99.90
18733;DHT22;9495;51.210;2.934;2023-06-05T07:43:30;16.60;99.90
18733;DHT22;9495;51.210;2.934;2023-06-05T07:45:58;17.10;99.90
18733;DHT22;9495;51.210;2.934;2023-06-05T07:48:27;17.00;99.90
18733;DHT22;9495;51.210;2.934;2023-06-05T07:50:55;16.80;99.90
18733;DHT22;9495;51.210;2.934;2023-06-05T07:53:24;16.80;99.90
18733;DHT22;9495;51.210;2.934;2023-06-05T07:55:53;17.10;99.90
18733;DHT22;9495;51.210;2.934;2023-06-05T07:58:21;16.70;99.90
18733;DHT22;9495;51.210;2.934;2023-06-05T08:00:51;16.70;99.90
18733;DHT22;9495;51.210;2.934;2023-06-05T08:03:21;17.10;99.90
18733;DHT22;9495;51.210;2.934;2023-06-05T08:05:50;16.90;99.90
18733;DHT22;9495;51.210;2.934;2023-06-05T08:08:19;16.90;99.90
18733;DHT22;9495;51.210;2.934;2023-06-05T08:10:48;16.90;99.90
18733;DHT22;9495;51.210;2.934;2023-06-05T08:13:17;16.80;99.90
18733;DHT22;9495;51.210;2.934;2023-06-05T08:15:46;16.90;99.90
18733;DHT22;9495;51.210;2.934;2023-06-05T08:18:16;16.90;99.90
18733;DHT22;9495;51.210;2.934;2023-06-05T08:20:44;16.80;99.90
18733;DHT22;9495;51.210;2.934;2023-06-05T08:23:13;16.90;99.90
18733;DHT22;9495;51.210;2.934;2023-06-05T08:25:43;17.00;99.90
18733;DHT22;9495;51.210;2.934;2023-06-05T08:28:12;17.30;99.90
18733;DHT22;9495;51.210;2.934;2023-06-05T08:30:41;17.20;99.90
18733;DHT22;9495;51.210;2.934;2023-06-05T08:33:09;17.10;99.90
18733;DHT22;9495;51.210;2.934;2023-06-05T08:35:40;17.20;99.90
18733;DHT22;9495;51.210;2.934;2023-06-05T08:38:09;17.20;99.90
18733;DHT22;9495;51.210;2.934;2023-06-05T08:40:39;17.20;99.90
18733;DHT22;9495;51.210;2.934;2023-06-05T08:43:08;17.10;99.90
18733;DHT22;9495;51.210;2.934;2023-06-05T08:45:37;17.30;99.90
18733;DHT22;9495;51.210;2.934;2023-06-05T08:48:07;17.00;99.90
18733;DHT22;9495;51.210;2.934;2023-06-05T08:50:40;16.90;99.90
18733;DHT22;9495;51.210;2.934;2023-06-05T08:53:11;17.00;99.90
18733;DHT22;9495;51.210;2.934;2023-06-05T08:55:47;16.90;99.90
18733;DHT22;9495;51.210;2.934;2023-06-05T08:58:16;17.20;99.90
18733;DHT22;9495;51.210;2.934;2023-06-05T09:00:45;17.00;99.90
18733;DHT22;9495;51.210;2.934;2023-06-05T09:03:16;17.60;99.90
18733;DHT22;9495;51.210;2.934;2023-06-05T09:05:47;18.10;99.90
18733;DHT22;9495;51.210;2.934;2023-06-05T09:08:16;18.50;99.90
18733;DHT22;9495;51.210;2.934;2023-06-05T09:10:44;17.50;99.90
18733;DHT22;9495;51.210;2.934;2023-06-05T09:13:13;17.30;99.90
18733;DHT22;9495;51.210;2.934;2023-06-05T09:15:42;17.60;99.90
18733;DHT22;9495;51.210;2.934;2023-06-05T09:18:17;17.80;99.90
18733;DHT22;9495;51.210;2.934;2023-06-05T09:20:47;17.80;99.90
18733;DHT22;9495;51.210;2.934;2023-06-05T09:23:25;17.90;99.90
18733;DHT22;9495;51.210;2.934;2023-06-05T09:25:56;18.20;99.90
18733;DHT22;9495;51.210;2.934;2023-06-05T09:28:26;17.90;99.90
18733;DHT22;9495;51.210;2.934;2023-06-05T09:30:58;18.50;99.90
18733;DHT22;9495;51.210;2.934;2023-06-05T09:33:29;18.40;99.90
18733;DHT22;9495;51.210;2.934;2023-06-05T09:36:10;18.10;99.90
18733;DHT22;9495;51.210;2.934;2023-06-05T09:38:40;18.30;99.90
18733;DHT22;9495;51.210;2.934;2023-06-05T09:41:10;18.70;99.90
18733;DHT22;9495;51.210;2.934;2023-06-05T09:43:39;18.70;99.90
18733;DHT22;9495;51.210;2.934;2023-06-05T09:46:08;18.80;99.90
18733;DHT22;9495;51.210;2.934;2023-06-05T09:48:38;18.90;99.90
18733;DHT22;9495;51.210;2.934;2023-06-05T09:51:12;18.80;99.90
18733;DHT22;9495;51.210;2.934;2023-06-05T09:53:43;18.20;99.90
18733;DHT22;9495;51.210;2.934;2023-06-05T09:56:12;18.70;99.90
18733;DHT22;9495;51.210;2.934;2023-06-05T09:58:45;18.80;99.90
18733;DHT22;9495;51.210;2.934;2023-06-05T10:01:15;19.00;99.90
18733;DHT22;9495;51.210;2.934;2023-06-05T10:03:48;19.20;99.90
18733;DHT22;9495;51.210;2.934;2023-06-05T10:06:20;18.30;99.90
18733;DHT22;9495;51.210;2.934;2023-06-05T10:08:51;18.70;99.90
18733;DHT22;9495;51.210;2.934;2023-06-05T10:11:23;19.10;99.90
18733;DHT22;9495;51.210;2.934;2023-06-05T10:13:52;19.30;99.90
18733;DHT22;9495;51.210;2.934;2023-06-05T10:16:21;19.60;99.90
18733;DHT22;9495;51.210;2.934;2023-06-05T10:18:54;19.90;99.90
18733;DHT22;9495;51.210;2.934;2023-06-05T10:21:25;19.60;99.90
18733;DHT22;9495;51.210;2.934;2023-06-05T10:23:58;19.50;99.90
18733;DHT22;9495;51.210;2.934;2023-06-05T10:26:42;19.50;99.90
18733;DHT22;9495;51.210;2.934;2023-06-05T10:29:27;19.20;99.90
18733;DHT22;9495;51.210;2.934;2023-06-05T10:32:00;19.40;99.90
18733;DHT22;9495;51.210;2.934;2023-06-05T10:34:40;19.70;99.90
18733;DHT22;9495;51.210;2.934;2023-06-05T10:37:36;19.10;99.90
18733;DHT22;9495;51.210;2.934;2023-06-05T10:40:07;18.80;99.90
18733;DHT22;9495;51.210;2.934;2023-06-05T10:42:37;19.30;99.90
18733;DHT22;9495;51.210;2.934;2023-06-05T10:45:06;19.80;99.90
18733;DHT22;9495;51.210;2.934;2023-06-05T10:47:51;20.30;99.90
18733;DHT22;9495;51.210;2.934;2023-06-05T10:50:25;19.70;99.90
18733;DHT22;9495;51.210;2.934;2023-06-05T10:52:56;19.70;99.90
18733;DHT22;9495;51.210;2.934;2023-06-05T10:55:27;19.90;99.90
18733;DHT22;9495;51.210;2.934;2023-06-05T10:58:09;20.30;99.90
18733;DHT22;9495;51.210;2.934;2023-06-05T11:04:07;19.60;99.90
18733;DHT22;9495;51.210;2.934;2023-06-05T11:06:36;19.50;99.90
18733;DHT22;9495;51.210;2.934;2023-06-05T11:09:14;19.70;99.90
18733;DHT22;9495;51.210;2.934;2023-06-05T11:11:59;19.20;99.90
18733;DHT22;9495;51.210;2.934;2023-06-05T11:14:44;19.00;99.90
18733;DHT22;9495;51.210;2.934;2023-06-05T11:17:29;19.10;99.90
18733;DHT22;9495;51.210;2.934;2023-06-05T11:19:58;19.60;99.90
18733;DHT22;9495;51.210;2.934;2023-06-05T11:22:27;20.20;99.90
18733;DHT22;9495;51.210;2.934;2023-06-05T11:25:25;20.40;99.90
18733;DHT22;9495;51.210;2.934;2023-06-05T11:27:55;19.80;99.90
18733;DHT22;9495;51.210;2.934;2023-06-05T11:30:25;19.80;99.90
18733;DHT22;9495;51.210;2.934;2023-06-05T11:33:13;19.50;99.90
18733;DHT22;9495;51.210;2.934;2023-06-05T11:35:44;19.40;99.90
18733;DHT22;9495;51.210;2.934;2023-06-05T11:38:14;19.00;99.90
18733;DHT22;9495;51.210;2.934;2023-06-05T11:40:47;19.60;99.90
18733;DHT22;9495;51.210;2.934;2023-06-05T11:43:16;19.30;99.90
18733;DHT22;9495;51.210;2.934;2023-06-05T11:45:49;19.40;99.90
18733;DHT22;9495;51.210;2.934;2023-06-05T11:48:18;19.70;99.90
18733;DHT22;9495;51.210;2.934;2023-06-05T11:50:56;19.90;99.90
18733;DHT22;9495;51.210;2.934;2023-06-05T11:53:25;19.60;99.90
18733;DHT22;9495;51.210;2.934;2023-06-05T11:55:56;19.60;99.90
18733;DHT22;9495;51.210;2.934;2023-06-05T11:58:37;20.00;99.90
18733;DHT22;9495;51.210;2.934;2023-06-05T12:01:07;20.20;99.90
18733;DHT22;9495;51.210;2.934;2023-06-05T12:03:40;19.40;99.90
18733;DHT22;9495;51.210;2.934;2023-06-05T12:06:09;19.60;99.90
18733;DHT22;9495;51.210;2.934;2023-06-05T12:08:40;20.10;99.90
18733;DHT22;9495;51.210;2.934;2023-06-05T12:11:24;19.60;99.90
18733;DHT22;9495;51.210;2.934;2023-06-05T12:13:54;19.40;99.90
18733;DHT22;9495;51.210;2.934;2023-06-05T12:16:30;20.00;99.90
18733;DHT22;9495;51.210;2.934;2023-06-05T12:19:00;20.30;99.90
18733;DHT22;9495;51.210;2.934;2023-06-05T12:21:41;20.30;99.90
18733;DHT22;9495;51.210;2.934;2023-06-05T12:24:10;20.20;99.90
18733;DHT22;9495;51.210;2.934;2023-06-05T12:26:51;20.10;99.90
18733;DHT22;9495;51.210;2.934;2023-06-05T12:29:22;20.20;99.90
18733;DHT22;9495;51.210;2.934;2023-06-05T12:31:51;20.30;99.90
18733;DHT22;9495;51.210;2.934;2023-06-05T12:34:38;20.40;99.90
18733;DHT22;9495;51.210;2.934;2023-06-05T12:37:25;20.50;99.90
18733;DHT22;9495;51.210;2.934;2023-06-05T12:39:57;20.40;99.90
18733;DHT22;9495;51.210;2.934;2023-06-05T12:42:34;20.40;99.90
18733;DHT22;9495;51.210;2.934;2023-06-05T12:45:04;20.20;99.90
18733;DHT22;9495;51.210;2.934;2023-06-05T12:47:34;19.40;99.90
18733;DHT22;9495;51.210;2.934;2023-06-05T12:50:03;19.60;99.90
18733;DHT22;9495;51.210;2.934;2023-06-05T12:52:33;19.70;99.90
18733;DHT22;9495;51.210;2.934;2023-06-05T12:55:01;19.60;99.90
18733;DHT22;9495;51.210;2.934;2023-06-05T12:57:32;20.20;99.90
18733;DHT22;9495;51.210;2.934;2023-06-05T13:00:03;20.10;99.90
18733;DHT22;9495;51.210;2.934;2023-06-05T13:02:38;19.80;99.90
18733;DHT22;9495;51.210;2.934;2023-06-05T13:05:07;19.70;99.90
18733;DHT22;9495;51.210;2.934;2023-06-05T13:07:38;19.40;99.90
18733;DHT22;9495;51.210;2.934;2023-06-05T13:10:07;19.20;99.90
18733;DHT22;9495;51.210;2.934;2023-06-05T13:12:39;20.00;99.90
18733;DHT22;9495;51.210;2.934;2023-06-05T13:15:10;20.10;99.90
18733;DHT22;9495;51.210;2.934;2023-06-05T13:17:38;20.20;99.90
18733;DHT22;9495;51.210;2.934;2023-06-05T13:20:07;19.00;99.90
18733;DHT22;9495;51.210;2.934;2023-06-05T13:22:38;19.50;99.90
18733;DHT22;9495;51.210;2.934;2023-06-05T13:25:07;20.00;99.90
18733;DHT22;9495;51.210;2.934;2023-06-05T13:27:36;20.30;99.90
18733;DHT22;9495;51.210;2.934;2023-06-05T13:30:07;20.20;99.90
18733;DHT22;9495;51.210;2.934;2023-06-05T13:32:36;20.50;99.90
18733;DHT22;9495;51.210;2.934;2023-06-05T13:35:06;19.70;99.90
18733;DHT22;9495;51.210;2.934;2023-06-05T13:37:36;19.70;99.90
18733;DHT22;9495;51.210;2.934;2023-06-05T13:40:05;20.30;99.90
18733;DHT22;9495;51.210;2.934;2023-06-05T13:42:38;20.50;99.90
18733;DHT22;9495;51.210;2.934;2023-06-05T13:45:09;20.80;99.90
18733;DHT22;9495;51.210;2.934;2023-06-05T13:47:38;20.40;99.90
18733;DHT22;9495;51.210;2.934;2023-06-05T13:50:07;20.00;99.90
18733;DHT22;9495;51.210;2.934;2023-06-05T13:52:39;19.70;99.90
18733;DHT22;9495;51.210;2.934;2023-06-05T13:55:07;19.30;99.90
18733;DHT22;9495;51.210;2.934;2023-06-05T13:57:39;19.00;99.90
18733;DHT22;9495;51.210;2.934;2023-06-05T14:00:09;19.70;99.90
18733;DHT22;9495;51.210;2.934;2023-06-05T14:02:38;19.90;99.90
18733;DHT22;9495;51.210;2.934;2023-06-05T14:05:07;19.40;99.90
18733;DHT22;9495;51.210;2.934;2023-06-05T14:07:37;19.70;99.90
18733;DHT22;9495;51.210;2.934;2023-06-05T14:10:16;19.70;99.90
18733;DHT22;9495;51.210;2.934;2023-06-05T14:12:45;19.80;99.90
18733;DHT22;9495;51.210;2.934;2023-06-05T14:15:15;19.80;99.90
18733;DHT22;9495;51.210;2.934;2023-06-05T14:17:45;19.70;99.90
18733;DHT22;9495;51.210;2.934;2023-06-05T14:20:14;18.90;99.90
18733;DHT22;9495;51.210;2.934;2023-06-05T14:22:43;18.90;99.90
18733;DHT22;9495;51.210;2.934;2023-06-05T14:25:12;19.60;99.90
18733;DHT22;9495;51.210;2.934;2023-06-05T14:27:40;20.10;99.90
18733;DHT22;9495;51.210;2.934;2023-06-05T14:30:09;19.60;99.90
18733;DHT22;9495;51.210;2.934;2023-06-05T14:32:39;19.30;99.90
18733;DHT22;9495;51.210;2.934;2023-06-05T14:35:09;19.30;99.90
18733;DHT22;9495;51.210;2.934;2023-06-05T14:37:37;19.50;99.90
18733;DHT22;9495;51.210;2.934;2023-06-05T14:40:07;19.30;99.90
18733;DHT22;9495;51.210;2.934;2023-06-05T14:42:35;18.70;99.90
18733;DHT22;9495;51.210;2.934;2023-06-05T14:45:04;19.50;99.90
18733;DHT22;9495;51.210;2.934;2023-06-05T14:47:33;19.50;99.90
18733;DHT22;9495;51.210;2.934;2023-06-05T14:50:07;18.80;99.90
18733;DHT22;9495;51.210;2.934;2023-06-05T14:52:36;18.40;99.90
18733;DHT22;9495;51.210;2.934;2023-06-05T14:55:05;19.00;99.90
18733;DHT22;9495;51.210;2.934;2023-06-05T14:57:33;19.30;99.90
18733;DHT22;9495;51.210;2.934;2023-06-05T15:00:02;19.20;99.90
18733;DHT22;9495;51.210;2.934;2023-06-05T15:02:32;18.90;99.90
18733;DHT22;9495;51.210;2.934;2023-06-05T15:05:01;18.90;99.90
18733;DHT22;9495;51.210;2.934;2023-06-05T15:07:41;18.30;99.90
18733;DHT22;9495;51.210;2.934;2023-06-05T15:10:11;18.80;99.90
18733;DHT22;9495;51.210;2.934;2023-06-05T15:12:42;18.50;99.90
18733;DHT22;9495;51.210;2.934;2023-06-05T15:15:11;19.10;99.90
18733;DHT22;9495;51.210;2.934;2023-06-05T15:17:42;19.30;99.90
18733;DHT22;9495;51.210;2.934;2023-06-05T15:20:11;19.30;99.90
18733;DHT22;9495;51.210;2.934;2023-06-05T15:22:41;19.30;99.90
18733;DHT22;9495;51.210;2.934;2023-06-05T15:25:09;19.00;99.90
18733;DHT22;9495;51.210;2.934;2023-06-05T15:27:38;19.80;99.90
18733;DHT22;9495;51.210;2.934;2023-06-05T15:30:07;18.50;99.90
18733;DHT22;9495;51.210;2.934;2023-06-05T15:32:36;18.90;99.90
18733;DHT22;9495;51.210;2.934;2023-06-05T15:35:05;19.20;99.90
18733;DHT22;9495;51.210;2.934;2023-06-05T15:37:33;19.00;99.90
18733;DHT22;9495;51.210;2.934;2023-06-05T15:40:04;19.10;99.90
18733;DHT22;9495;51.210;2.934;2023-06-05T15:42:34;19.20;99.90
18733;DHT22;9495;51.210;2.934;2023-06-05T15:45:06;18.60;99.90
18733;DHT22;9495;51.210;2.934;2023-06-05T15:47:35;18.90;99.90
18733;DHT22;9495;51.210;2.934;2023-06-05T15:50:04;18.60;99.90
18733;DHT22;9495;51.210;2.934;2023-06-05T15:52:34;18.90;99.90
18733;DHT22;9495;51.210;2.934;2023-06-05T15:55:04;18.50;99.90
18733;DHT22;9495;51.210;2.934;2023-06-05T15:57:33;18.20;99.90
18733;DHT22;9495;51.210;2.934;2023-06-05T16:00:02;18.50;99.90
18733;DHT22;9495;51.210;2.934;2023-06-05T16:02:31;18.40;99.90
18733;DHT22;9495;51.210;2.934;2023-06-05T16:04:59;18.20;99.90
18733;DHT22;9495;51.210;2.934;2023-06-05T16:07:28;18.20;99.90
18733;DHT22;9495;51.210;2.934;2023-06-05T16:09:57;18.10;99.90